Time;durP1;ratioP1;P1;durP2;ratioP2;P2;SDS_P1;SDS_P2;PMS_P1;PMS_P2;Temp;Humidity;BMP_temperature;BMP_pressure;BME280_temperature;BME280_humidity;BME280_pressure;Samples;Min_cycle;Max_cycle;Signal;HPM_P1;HPM_P2
2023/05/14 00:01:46;;;;;;;15.15;10.90;;;18.20;68.00;;;;;;4975943;28;20038;-91
2023/05/14 00:04:12;;;;;;;14.35;10.45;;;18.20;67.90;;;;;;4975877;28;20081;-91
2023/05/14 00:06:38;;;;;;;16.27;10.93;;;18.20;68.20;;;;;;4975845;28;20496;-92
2023/05/14 00:09:03;;;;;;;16.83;10.95;;;18.20;68.00;;;;;;4975767;28;20042;-92
2023/05/14 00:11:29;;;;;;;15.43;11.07;;;18.20;68.10;;;;;;4975914;28;20049;-92
2023/05/14 00:13:55;;;;;;;14.15;10.85;;;18.30;68.20;;;;;;4975541;28;20051;-92
2023/05/14 00:16:20;;;;;;;15.77;10.30;;;18.20;68.30;;;;;;4976004;28;20431;-91
2023/05/14 00:18:46;;;;;;;16.15;9.82;;;18.20;68.40;;;;;;4959400;28;20050;-92
2023/05/14 00:21:11;;;;;;;15.73;10.45;;;18.10;68.40;;;;;;4959544;28;20042;-91
2023/05/14 00:23:37;;;;;;;16.80;10.52;;;18.10;68.60;;;;;;4959573;28;20500;-91
2023/05/14 00:26:03;;;;;;;15.13;10.90;;;18.10;68.60;;;;;;4975516;28;20050;-91
2023/05/14 00:28:28;;;;;;;18.35;10.52;;;18.10;68.70;;;;;;4975505;28;20054;-92
2023/05/14 00:30:55;;;;;;;15.35;10.93;;;18.10;68.80;;;;;;4975316;28;20047;-92
2023/05/14 00:33:21;;;;;;;17.65;11.10;;;18.10;68.80;;;;;;4975518;28;20508;-89
2023/05/14 00:35:47;;;;;;;19.05;11.40;;;18.00;69.00;;;;;;4975164;28;20046;-92
2023/05/14 00:38:16;;;;;;;14.13;11.55;;;18.00;69.10;;;;;;4975168;28;20046;-91
2023/05/14 00:40:44;;;;;;;16.42;11.02;;;18.00;69.20;;;;;;4959087;28;20051;-91
2023/05/14 00:43:11;;;;;;;18.98;11.50;;;17.90;69.30;;;;;;4959204;28;20046;-92
2023/05/14 00:45:37;;;;;;;17.60;11.02;;;17.90;69.40;;;;;;4959180;28;20074;-92
2023/05/14 00:48:03;;;;;;;15.20;10.85;;;17.90;69.50;;;;;;4975194;28;20085;-91
2023/05/14 00:50:29;;;;;;;21.05;11.85;;;17.90;69.70;;;;;;4974879;28;20428;-92
2023/05/14 00:52:54;;;;;;;15.55;11.10;;;17.90;69.70;;;;;;4974688;28;20058;-91
2023/05/14 00:55:21;;;;;;;17.52;11.48;;;17.90;69.80;;;;;;4975085;28;20051;-91
2023/05/14 00:57:48;;;;;;;15.07;12.00;;;17.90;69.70;;;;;;4974800;28;20046;-92
2023/05/14 01:00:14;;;;;;;13.77;11.15;;;17.90;69.80;;;;;;4959383;28;20065;-93
2023/05/14 01:02:39;;;;;;;17.23;11.73;;;17.90;69.90;;;;;;4975106;28;20050;-92
2023/05/14 01:05:06;;;;;;;15.63;12.15;;;17.80;70.00;;;;;;4975017;28;20057;-92
2023/05/14 01:07:41;;;;;;;15.02;11.63;;;17.80;70.10;;;;;;4959286;28;20069;-92
2023/05/14 01:10:25;;;;;;;15.25;12.50;;;17.60;70.50;;;;;;4975052;28;20046;-92
2023/05/14 01:13:02;;;;;;;15.32;12.35;;;17.60;70.50;;;;;;4974634;28;20042;-92
2023/05/14 01:15:31;;;;;;;15.45;13.15;;;17.50;70.80;;;;;;4974262;28;20050;-92
2023/05/14 01:18:09;;;;;;;15.02;12.38;;;17.50;71.20;;;;;;4958873;28;20046;-92
2023/05/14 01:20:35;;;;;;;16.70;12.80;;;17.40;71.70;;;;;;4959138;28;20423;-91
2023/05/14 01:23:01;;;;;;;16.73;12.73;;;17.50;71.30;;;;;;4958649;28;20500;-92
2023/05/14 01:25:29;;;;;;;18.42;12.88;;;17.50;71.90;;;;;;4961246;28;20097;-92
2023/05/14 01:28:16;;;;;;;17.60;12.25;;;17.50;71.50;;;;;;4976012;28;20050;-92
2023/05/14 01:30:56;;;;;;;19.70;12.40;;;17.30;71.70;;;;;;4958514;28;20042;-91
2023/05/14 01:33:25;;;;;;;16.75;11.93;;;17.30;71.80;;;;;;4958721;28;20137;-92
2023/05/14 01:35:52;;;;;;;16.40;12.88;;;17.30;72.00;;;;;;4958098;28;20133;-91
2023/05/14 01:38:19;;;;;;;16.35;12.95;;;17.20;71.90;;;;;;4958787;28;20585;-92
2023/05/14 01:40:46;;;;;;;17.45;13.23;;;17.20;72.10;;;;;;4958460;28;20723;-92
2023/05/14 01:43:11;;;;;;;15.88;11.75;;;17.10;72.20;;;;;;4958088;28;20045;-94
2023/05/14 01:45:37;;;;;;;16.40;11.77;;;17.10;72.40;;;;;;4958279;28;20129;-95
2023/05/14 01:48:06;;;;;;;16.67;12.90;;;17.00;72.50;;;;;;4974663;28;20042;-94
2023/05/14 01:50:31;;;;;;;23.13;14.40;;;17.00;72.60;;;;;;4960658;28;20042;-95
2023/05/14 01:52:57;;;;;;;17.23;13.02;;;17.00;72.70;;;;;;4978402;28;20050;-94
2023/05/14 01:55:23;;;;;;;16.77;13.00;;;17.00;72.90;;;;;;4978082;28;20039;-94
2023/05/14 01:57:49;;;;;;;17.25;12.55;;;17.00;72.90;;;;;;4981428;28;20340;-94
2023/05/14 02:00:15;;;;;;;14.25;11.07;;;17.10;72.90;;;;;;4976840;28;20038;-94
2023/05/14 02:02:41;;;;;;;16.15;12.68;;;17.10;72.70;;;;;;4989815;28;20056;-94
2023/05/14 02:05:07;;;;;;;14.95;11.50;;;17.10;72.60;;;;;;4978409;28;20056;-94
2023/05/14 02:07:33;;;;;;;14.80;11.93;;;17.20;72.70;;;;;;4962388;28;20057;-94
2023/05/14 02:09:58;;;;;;;19.20;13.57;;;17.20;72.60;;;;;;4978221;28;20050;-94
2023/05/14 02:12:25;;;;;;;19.08;12.90;;;17.10;72.60;;;;;;4977940;28;20507;-94
2023/05/14 02:14:50;;;;;;;16.42;12.02;;;17.10;72.90;;;;;;4977723;28;20098;-95
2023/05/14 02:17:16;;;;;;;17.45;13.00;;;17.00;73.20;;;;;;4978269;28;20121;-94
2023/05/14 02:19:43;;;;;;;17.55;12.57;;;17.00;73.10;;;;;;4961654;28;20047;-95
2023/05/14 02:22:08;;;;;;;19.83;13.02;;;17.00;73.10;;;;;;4977274;28;20042;-94
2023/05/14 02:24:34;;;;;;;14.63;12.23;;;17.00;73.20;;;;;;4977773;28;20046;-94
2023/05/14 02:27:00;;;;;;;19.63;12.55;;;17.00;73.30;;;;;;4977668;28;20050;-94
2023/05/14 02:29:26;;;;;;;20.42;12.93;;;17.00;73.40;;;;;;4977631;28;20496;-95
2023/05/14 02:31:51;;;;;;;17.83;12.63;;;17.00;73.30;;;;;;4961279;28;20046;-93
2023/05/14 02:34:17;;;;;;;16.05;12.18;;;17.10;73.50;;;;;;4977417;28;20061;-94
2023/05/14 02:36:42;;;;;;;17.33;12.90;;;17.00;73.40;;;;;;4977516;28;20485;-95
2023/05/14 02:39:08;;;;;;;17.13;12.55;;;17.00;73.40;;;;;;4977563;28;20046;-95
2023/05/14 02:41:34;;;;;;;18.60;12.93;;;17.10;73.40;;;;;;4977472;28;20046;-94
2023/05/14 02:43:59;;;;;;;17.42;12.93;;;17.10;73.40;;;;;;4977493;28;20038;-94
2023/05/14 02:46:25;;;;;;;19.38;13.10;;;17.00;73.40;;;;;;4976799;28;20038;-95
2023/05/14 02:48:51;;;;;;;18.63;12.98;;;17.00;73.50;;;;;;4960927;28;20046;-95
2023/05/14 02:51:18;;;;;;;20.75;13.90;;;16.90;73.60;;;;;;4961069;28;20049;-94
2023/05/14 02:53:44;;;;;;;17.27;12.77;;;16.90;73.70;;;;;;4961105;28;20048;-95
2023/05/14 02:56:09;;;;;;;20.92;13.88;;;16.90;73.80;;;;;;4960926;28;20042;-94
2023/05/14 02:58:35;;;;;;;14.88;11.90;;;16.90;73.80;;;;;;4977045;28;20046;-95
2023/05/14 03:01:01;;;;;;;14.15;12.10;;;16.90;73.90;;;;;;4975912;28;20077;-95
2023/05/14 03:03:28;;;;;;;15.70;12.25;;;16.90;73.90;;;;;;4976908;28;20042;-95
2023/05/14 03:05:54;;;;;;;16.27;11.35;;;16.90;73.80;;;;;;4960368;28;20035;-93
2023/05/14 03:08:20;;;;;;;18.42;12.40;;;16.90;73.50;;;;;;4960594;28;20050;-92
2023/05/14 03:10:45;;;;;;;15.35;11.75;;;16.70;73.40;;;;;;4976378;28;20050;-95
2023/05/14 03:13:11;;;;;;;15.73;11.73;;;16.40;73.60;;;;;;4976645;28;20495;-95
2023/05/14 03:15:37;;;;;;;14.30;11.68;;;16.10;74.50;;;;;;4976487;28;20043;-95
2023/05/14 03:18:02;;;;;;;16.13;12.18;;;15.90;74.90;;;;;;4977363;28;20181;-95
2023/05/14 03:20:28;;;;;;;16.92;11.70;;;15.90;75.10;;;;;;4976851;28;20439;-94
2023/05/14 03:22:54;;;;;;;16.33;12.48;;;15.90;75.00;;;;;;4976810;28;20432;-95
2023/05/14 03:25:20;;;;;;;16.98;12.73;;;15.90;74.90;;;;;;4976271;28;20165;-94
2023/05/14 03:27:46;;;;;;;17.58;12.93;;;15.80;75.20;;;;;;4976495;28;20133;-94
2023/05/14 03:30:12;;;;;;;17.23;11.70;;;15.70;75.50;;;;;;4976558;28;20401;-94
2023/05/14 03:32:37;;;;;;;15.93;12.80;;;15.70;75.70;;;;;;4960022;28;20061;-94
2023/05/14 03:35:03;;;;;;;15.82;11.95;;;15.80;75.70;;;;;;4975938;28;20034;-95
2023/05/14 03:37:29;;;;;;;14.65;12.07;;;15.80;75.50;;;;;;4976462;28;20038;-94
2023/05/14 03:39:55;;;;;;;16.58;11.73;;;15.90;75.40;;;;;;4976615;28;20070;-95
2023/05/14 03:42:20;;;;;;;19.48;12.30;;;15.90;75.20;;;;;;4976545;28;20047;-96
2023/05/14 03:44:46;;;;;;;19.08;12.52;;;16.00;75.20;;;;;;4976669;28;20084;-94
2023/05/14 03:47:11;;;;;;;36.35;21.05;;;16.00;75.10;;;;;;4960037;28;20046;-94
2023/05/14 03:49:37;;;;;;;30.58;18.85;;;16.00;75.00;;;;;;4976186;28;20046;-94
2023/05/14 03:52:03;;;;;;;20.67;14.38;;;15.90;75.20;;;;;;4975917;28;20046;-96
2023/05/14 03:54:28;;;;;;;17.50;13.32;;;15.90;75.40;;;;;;4976128;28;20054;-95
2023/05/14 03:56:54;;;;;;;13.82;11.75;;;15.90;75.60;;;;;;4975966;28;20465;-94
2023/05/14 03:59:19;;;;;;;16.42;12.63;;;15.90;75.60;;;;;;4960023;28;20046;-95
2023/05/14 04:01:45;;;;;;;14.65;12.35;;;15.90;75.60;;;;;;4976121;28;20221;-95
2023/05/14 04:04:10;;;;;;;19.25;13.80;;;15.90;75.40;;;;;;4975590;28;20105;-95
2023/05/14 04:06:36;;;;;;;20.00;13.57;;;16.00;75.50;;;;;;4975484;28;20503;-94
2023/05/14 04:09:02;;;;;;;18.77;13.20;;;16.00;75.60;;;;;;4976153;28;20054;-95
2023/05/14 04:11:28;;;;;;;18.35;12.88;;;16.00;75.60;;;;;;4975625;28;20053;-95
2023/05/14 04:13:54;;;;;;;15.75;12.35;;;15.90;75.60;;;;;;4975100;28;20399;-94
2023/05/14 04:16:19;;;;;;;15.23;11.93;;;15.90;75.60;;;;;;4975469;28;20042;-94
2023/05/14 04:18:45;;;;;;;14.48;12.00;;;16.00;75.50;;;;;;4975624;28;20056;-94
2023/05/14 04:21:11;;;;;;;14.68;10.93;;;16.10;75.50;;;;;;4959412;28;20050;-94
2023/05/14 04:23:37;;;;;;;15.68;11.57;;;16.00;75.20;;;;;;4958945;28;20133;-95
2023/05/14 04:26:03;;;;;;;16.40;11.55;;;16.00;75.10;;;;;;4975347;28;20062;-95
2023/05/14 04:28:29;;;;;;;15.95;12.80;;;16.00;75.20;;;;;;4975373;28;20046;-95
2023/05/14 04:30:54;;;;;;;16.30;13.38;;;16.00;75.20;;;;;;4975397;28;20058;-95
2023/05/14 04:33:20;;;;;;;15.20;12.93;;;16.10;75.30;;;;;;4974875;28;20038;-95
2023/05/14 04:35:46;;;;;;;15.00;12.77;;;16.10;75.40;;;;;;4974858;28;20050;-95
2023/05/14 04:38:13;;;;;;;17.58;13.48;;;16.10;75.50;;;;;;4975276;28;20046;-95
2023/05/14 04:40:40;;;;;;;18.50;13.63;;;16.10;76.10;;;;;;4974830;28;20081;-95
2023/05/14 04:43:06;;;;;;;17.23;14.30;;;16.10;75.70;;;;;;4958975;28;20054;-95
2023/05/14 04:45:32;;;;;;;17.00;14.10;;;16.10;75.90;;;;;;4974732;28;20492;-95
2023/05/14 04:47:58;;;;;;;18.60;14.00;;;16.10;76.00;;;;;;4959009;28;20053;-94
2023/05/14 04:50:24;;;;;;;16.58;13.90;;;16.20;76.20;;;;;;4959212;28;20057;-94
2023/05/14 04:52:51;;;;;;;20.33;13.60;;;16.10;76.20;;;;;;4974972;28;20571;-95
2023/05/14 04:55:16;;;;;;;18.25;13.52;;;16.10;76.50;;;;;;4974282;28;20137;-95
2023/05/14 04:57:42;;;;;;;18.35;14.05;;;16.10;76.70;;;;;;4974968;28;20054;-95
2023/05/14 05:00:09;;;;;;;20.73;14.48;;;16.10;76.90;;;;;;4975078;28;20046;-96
2023/05/14 05:02:35;;;;;;;18.30;14.18;;;16.20;76.90;;;;;;4958669;28;20042;-95
2023/05/14 05:05:01;;;;;;;20.33;15.45;;;16.30;76.90;;;;;;4974839;28;20046;-95
2023/05/14 05:07:26;;;;;;;18.17;14.15;;;16.50;77.00;;;;;;4974509;28;20041;-95
2023/05/14 05:09:52;;;;;;;17.25;13.55;;;16.50;77.00;;;;;;4975323;28;20081;-94
2023/05/14 05:12:17;;;;;;;19.88;15.35;;;16.50;77.00;;;;;;4984167;28;20042;-94
2023/05/14 05:14:43;;;;;;;19.73;14.50;;;16.50;77.10;;;;;;4974339;28;20046;-94
2023/05/14 05:17:08;;;;;;;20.67;15.35;;;16.50;77.30;;;;;;4973946;28;20044;-93
2023/05/14 05:19:34;;;;;;;22.10;15.63;;;16.50;77.60;;;;;;4974033;28;20047;-94
2023/05/14 05:21:59;;;;;;;24.48;15.32;;;16.30;78.20;;;;;;4974353;28;20129;-93
2023/05/14 05:24:25;;;;;;;21.55;14.80;;;16.20;78.70;;;;;;4973663;28;20505;-94
2023/05/14 05:26:52;;;;;;;18.48;15.27;;;16.20;79.50;;;;;;4973388;28;20054;-95
2023/05/14 05:29:18;;;;;;;22.88;16.17;;;16.10;79.80;;;;;;4974308;28;20389;-94
2023/05/14 05:31:43;;;;;;;26.10;16.30;;;16.20;79.90;;;;;;4958124;28;20042;-94
2023/05/14 05:34:09;;;;;;;26.10;15.82;;;16.20;80.30;;;;;;4974719;28;20186;-95
2023/05/14 05:36:35;;;;;;;23.65;16.10;;;16.20;80.30;;;;;;4973896;28;20046;-94
2023/05/14 05:39:00;;;;;;;22.60;15.73;;;16.40;80.20;;;;;;4974451;28;20048;-96
2023/05/14 05:41:26;;;;;;;19.33;15.13;;;16.50;80.00;;;;;;4974541;28;20476;-94
2023/05/14 05:43:51;;;;;;;19.13;14.73;;;16.60;79.90;;;;;;4974240;28;20042;-94
2023/05/14 05:46:18;;;;;;;17.27;14.73;;;16.60;79.70;;;;;;4974036;28;20042;-91
2023/05/14 05:48:43;;;;;;;19.63;14.50;;;16.70;79.90;;;;;;4958397;28;20073;-90
2023/05/14 05:51:09;;;;;;;23.25;14.63;;;16.70;80.10;;;;;;4973621;28;20050;-92
2023/05/14 05:53:35;;;;;;;18.70;13.95;;;16.60;80.20;;;;;;4974336;28;20042;-91
2023/05/14 05:56:01;;;;;;;20.88;14.77;;;16.60;80.20;;;;;;4974524;28;20052;-93
2023/05/14 05:58:26;;;;;;;25.00;14.30;;;16.60;80.30;;;;;;4977440;28;20536;-92
2023/05/14 06:01:02;;;;;;;20.40;14.95;;;16.70;80.40;;;;;;4977047;28;20161;-92
2023/05/14 06:03:28;;;;;;;19.80;14.40;;;16.70;80.60;;;;;;4977553;28;20069;-92
2023/05/14 06:06:04;;;;;;;21.60;15.95;;;16.90;80.30;;;;;;4977766;28;20038;-92
2023/05/14 06:08:30;;;;;;;20.50;14.38;;;17.00;80.40;;;;;;4976928;28;20073;-92
2023/05/14 06:11:06;;;;;;;23.77;15.27;;;17.20;80.20;;;;;;4977348;28;20078;-91
2023/05/14 06:13:31;;;;;;;18.58;13.70;;;17.10;80.50;;;;;;4977388;28;20049;-92
2023/05/14 06:15:57;;;;;;;23.10;14.98;;;17.30;80.40;;;;;;4977509;28;20042;-93
2023/05/14 06:18:23;;;;;;;19.13;14.35;;;17.40;80.30;;;;;;4961861;28;20093;-93
2023/05/14 06:20:52;;;;;;;21.00;14.40;;;17.50;80.20;;;;;;4977878;28;20042;-92
2023/05/14 06:23:23;;;;;;;21.60;14.18;;;17.60;80.20;;;;;;4977640;28;20579;-92
2023/05/14 06:25:52;;;;;;;21.55;15.30;;;17.60;80.00;;;;;;4976030;28;20065;-94
2023/05/14 06:28:18;;;;;;;19.52;14.43;;;17.70;79.80;;;;;;4973137;28;20038;-95
2023/05/14 06:30:43;;;;;;;18.35;15.05;;;17.90;79.80;;;;;;4974548;28;20050;-94
2023/05/14 06:33:09;;;;;;;21.38;14.80;;;17.90;79.70;;;;;;4973695;28;20579;-93
2023/05/14 06:35:35;;;;;;;18.08;14.13;;;18.00;79.50;;;;;;4975154;28;20049;-94
2023/05/14 06:38:01;;;;;;;20.67;14.55;;;18.10;79.60;;;;;;4979207;28;20042;-94
2023/05/14 06:40:27;;;;;;;20.27;14.30;;;18.10;79.40;;;;;;4979056;28;20108;-93
2023/05/14 06:42:52;;;;;;;23.00;14.38;;;18.20;79.10;;;;;;4978652;28;20042;-94
2023/05/14 06:45:18;;;;;;;19.85;14.15;;;18.20;78.90;;;;;;4978884;28;20046;-93
2023/05/14 06:47:43;;;;;;;20.85;13.68;;;18.30;79.10;;;;;;4977008;28;20415;-94
2023/05/14 06:50:09;;;;;;;19.48;15.30;;;18.30;79.00;;;;;;4964469;28;20741;-94
2023/05/14 06:52:35;;;;;;;19.90;15.07;;;18.40;79.00;;;;;;4984277;28;20085;-94
2023/05/14 06:55:01;;;;;;;23.35;14.48;;;18.40;79.00;;;;;;4964428;28;20046;-93
2023/05/14 06:57:27;;;;;;;19.77;13.85;;;18.50;78.90;;;;;;4977184;28;20049;-94
2023/05/14 06:59:52;;;;;;;22.45;15.00;;;18.60;78.80;;;;;;4980110;28;20412;-94
2023/05/14 07:02:18;;;;;;;21.55;14.68;;;18.80;78.80;;;;;;4980666;28;20043;-94
2023/05/14 07:04:43;;;;;;;18.00;14.10;;;19.10;78.10;;;;;;4977393;28;20480;-94
2023/05/14 07:07:12;;;;;;;22.73;15.32;;;19.30;77.60;;;;;;4960900;28;20042;-94
2023/05/14 07:09:37;;;;;;;24.98;15.77;;;19.40;77.40;;;;;;4976880;28;20487;-94
2023/05/14 07:12:04;;;;;;;17.10;13.05;;;19.50;77.40;;;;;;4977044;28;20057;-94
2023/05/14 07:14:29;;;;;;;20.77;14.10;;;19.70;77.00;;;;;;4979012;28;20042;-94
2023/05/14 07:16:56;;;;;;;21.70;15.10;;;20.00;76.70;;;;;;4976958;28;20052;-94
2023/05/14 07:19:21;;;;;;;21.90;15.07;;;20.10;76.30;;;;;;4960817;28;20046;-95
2023/05/14 07:21:47;;;;;;;20.55;14.20;;;20.20;76.10;;;;;;4976855;28;20065;-93
2023/05/14 07:24:12;;;;;;;19.92;14.70;;;20.30;75.90;;;;;;4975902;28;20146;-93
2023/05/14 07:26:38;;;;;;;18.38;14.38;;;20.40;75.80;;;;;;4976706;28;20049;-91
2023/05/14 07:29:04;;;;;;;17.73;13.57;;;20.40;75.30;;;;;;4977401;28;20089;-93
2023/05/14 07:31:30;;;;;;;17.38;12.77;;;20.40;75.20;;;;;;4977776;28;20050;-94
2023/05/14 07:33:55;;;;;;;19.90;13.48;;;20.40;75.20;;;;;;4979142;28;20078;-94
2023/05/14 07:36:21;;;;;;;21.15;13.55;;;20.50;75.00;;;;;;4979445;28;20050;-94
2023/05/14 07:38:46;;;;;;;21.52;14.07;;;20.50;74.60;;;;;;4979297;28;20409;-93
2023/05/14 07:41:12;;;;;;;14.68;10.88;;;20.50;74.70;;;;;;4980572;28;20053;-93
2023/05/14 07:43:39;;;;;;;17.33;13.25;;;20.60;74.90;;;;;;4979373;28;20051;-94
2023/05/14 07:46:04;;;;;;;21.25;14.73;;;20.70;75.20;;;;;;4963290;28;20217;-93
2023/05/14 07:48:38;;;;;;;24.20;15.25;;;20.80;74.10;;;;;;4962757;28;20059;-93
2023/05/14 07:51:04;;;;;;;21.85;14.95;;;20.70;74.40;;;;;;4963994;28;20065;-94
2023/05/14 07:53:29;;;;;;;21.63;14.98;;;20.90;74.20;;;;;;4964090;28;20042;-94
2023/05/14 07:55:55;;;;;;;21.90;14.70;;;20.80;74.20;;;;;;4963167;28;20046;-95
2023/05/14 07:58:21;;;;;;;19.77;14.98;;;20.80;74.30;;;;;;4963381;28;20049;-94
2023/05/14 08:00:47;;;;;;;22.83;14.73;;;20.90;74.20;;;;;;4963865;28;20081;-93
2023/05/14 08:03:13;;;;;;;19.70;15.20;;;20.90;73.90;;;;;;4962825;28;20065;-94
2023/05/14 08:05:38;;;;;;;20.27;15.40;;;20.90;74.10;;;;;;4962234;28;20069;-93
2023/05/14 08:08:04;;;;;;;21.67;14.48;;;20.90;74.20;;;;;;4962489;28;20046;-94
2023/05/14 08:10:30;;;;;;;16.95;15.15;;;20.90;74.10;;;;;;4962233;28;20057;-94
2023/05/14 08:12:55;;;;;;;19.13;14.70;;;21.00;74.10;;;;;;4962562;28;20039;-94
2023/05/14 08:15:21;;;;;;;21.05;15.13;;;21.00;73.60;;;;;;4978247;28;20039;-91
2023/05/14 08:18:05;;;;;;;18.67;14.57;;;21.00;73.70;;;;;;4962679;28;20049;-93
2023/05/14 08:20:31;;;;;;;19.80;13.57;;;20.80;74.10;;;;;;4962606;28;20452;-93
2023/05/14 08:22:58;;;;;;;20.30;14.10;;;21.00;73.20;;;;;;4977979;28;20046;-94
2023/05/14 08:25:23;;;;;;;16.00;13.60;;;21.10;73.20;;;;;;4977949;28;20799;-95
2023/05/14 08:27:49;;;;;;;17.30;12.95;;;21.20;73.00;;;;;;4961891;28;20053;-93
2023/05/14 08:30:15;;;;;;;19.42;13.27;;;21.30;72.50;;;;;;4977910;28;20422;-94
2023/05/14 08:32:41;;;;;;;17.63;14.70;;;21.40;72.40;;;;;;4976354;28;20054;-92
2023/05/14 08:35:07;;;;;;;18.42;13.98;;;21.60;72.10;;;;;;4976379;28;20038;-94
2023/05/14 08:37:33;;;;;;;17.92;14.93;;;21.60;71.80;;;;;;4977421;28;20051;-92
2023/05/14 08:39:58;;;;;;;22.85;15.38;;;21.70;71.60;;;;;;4977763;28;20057;-93
2023/05/14 08:42:31;;;;;;;18.33;13.90;;;21.80;71.60;;;;;;4961818;28;20546;-92
2023/05/14 08:45:02;;;;;;;16.13;13.75;;;21.70;71.10;;;;;;4977893;28;20074;-92
2023/05/14 08:47:31;;;;;;;17.50;13.95;;;21.90;71.00;;;;;;4960995;28;20117;-91
2023/05/14 08:50:05;;;;;;;18.23;13.98;;;22.00;70.40;;;;;;4977526;28;20054;-92
2023/05/14 08:52:31;;;;;;;17.13;14.35;;;22.10;69.90;;;;;;4961215;28;20046;-92
2023/05/14 08:55:00;;;;;;;20.10;14.90;;;22.30;69.80;;;;;;4977059;28;20133;-91
2023/05/14 08:57:28;;;;;;;18.92;14.95;;;22.30;69.30;;;;;;4961638;28;20435;-95
2023/05/14 08:59:55;;;;;;;15.50;13.18;;;22.50;69.00;;;;;;4977321;28;20074;-93
2023/05/14 09:02:28;;;;;;;17.27;13.57;;;22.50;68.90;;;;;;4977279;28;20093;-90
2023/05/14 09:04:59;;;;;;;17.02;13.93;;;22.60;68.60;;;;;;4977126;28;20100;-91
2023/05/14 09:07:25;;;;;;;17.05;13.48;;;22.70;68.50;;;;;;4976986;28;20051;-90
2023/05/14 09:09:51;;;;;;;15.23;13.38;;;22.70;68.10;;;;;;4977248;28;20116;-92
2023/05/14 09:13:03;;;;;;;16.17;12.98;;;22.70;67.90;;;;;;4977559;28;20101;-92
2023/05/14 09:15:33;;;;;;;19.27;14.43;;;22.60;68.10;;;;;;4978112;28;20078;-92
2023/05/14 09:18:00;;;;;;;16.80;13.57;;;22.70;67.80;;;;;;4977034;28;20097;-89
2023/05/14 09:20:27;;;;;;;14.43;12.90;;;22.60;67.90;;;;;;4961342;28;20537;-92
2023/05/14 09:22:53;;;;;;;16.70;13.02;;;22.60;68.20;;;;;;4977242;28;20050;-92
2023/05/14 09:25:19;;;;;;;13.95;12.45;;;22.60;67.70;;;;;;4977524;28;20073;-93
2023/05/14 09:27:48;;;;;;;17.60;13.35;;;22.60;67.60;;;;;;4977413;28;20047;-95
2023/05/14 09:30:28;;;;;;;17.25;13.63;;;22.70;67.60;;;;;;4961140;28;20112;-93
2023/05/14 09:33:03;;;;;;;16.77;13.02;;;22.60;68.30;;;;;;4977737;28;20057;-94
2023/05/14 09:35:31;;;;;;;13.85;11.63;;;22.60;67.00;;;;;;4977496;28;20078;-95
2023/05/14 09:37:56;;;;;;;17.23;11.82;;;22.70;66.60;;;;;;4977412;28;20837;-94
2023/05/14 09:40:23;;;;;;;15.63;11.77;;;22.60;66.90;;;;;;4977202;28;20051;-93
2023/05/14 09:42:49;;;;;;;15.10;12.00;;;22.60;66.40;;;;;;4977171;28;20043;-92
2023/05/14 09:45:15;;;;;;;12.70;11.40;;;22.60;66.60;;;;;;4976854;28;20053;-93
2023/05/14 09:47:41;;;;;;;16.15;11.95;;;22.70;66.20;;;;;;4961420;28;20038;-95
2023/05/14 09:50:07;;;;;;;16.73;12.60;;;22.80;65.80;;;;;;4977055;28;20066;-94
2023/05/14 09:52:34;;;;;;;14.00;11.93;;;22.80;65.60;;;;;;4977459;28;20370;-95
2023/05/14 09:55:00;;;;;;;13.32;11.07;;;22.80;65.10;;;;;;4977336;28;20042;-94
2023/05/14 09:57:26;;;;;;;14.00;11.70;;;22.80;65.00;;;;;;4960962;28;20135;-94
2023/05/14 10:00:03;;;;;;;11.55;10.02;;;22.90;65.20;;;;;;4977028;28;20090;-94
2023/05/14 10:02:36;;;;;;;10.27;8.25;;;22.90;66.20;;;;;;4976858;28;20133;-94
2023/05/14 10:05:03;;;;;;;;;;;23.00;64.00;;;;;;4961314;28;20046;-94
2023/05/14 10:07:35;;;;;;;7.45;6.75;;;23.30;64.60;;;;;;4961249;28;20331;-94
2023/05/14 10:10:03;;;;;;;13.25;7.82;;;23.30;61.60;;;;;;4977122;28;20038;-94
2023/05/14 10:12:33;;;;;;;11.98;7.80;;;23.40;61.80;;;;;;4980961;28;20039;-96
2023/05/14 10:15:05;;;;;;;8.68;7.18;;;23.60;60.30;;;;;;4964651;28;20484;-96
2023/05/14 10:17:39;;;;;;;8.07;6.85;;;23.80;58.70;;;;;;4980475;28;20052;-96
2023/05/14 10:20:08;;;;;;;7.97;6.70;;;23.90;57.90;;;;;;4980600;28;20268;-92
2023/05/14 10:22:38;;;;;;;8.90;6.60;;;24.00;57.60;;;;;;4964518;28;20054;-95
2023/05/14 10:25:48;;;;;;;8.35;7.03;;;24.10;57.70;;;;;;4980881;28;20061;-95
2023/05/14 10:28:16;;;;;;;9.77;7.90;;;24.00;58.00;;;;;;4957618;29;20048;-93
2023/05/14 10:30:55;;;;;;;7.93;7.15;;;24.40;58.00;;;;;;4958106;29;20109;-94
2023/05/14 10:33:21;;;;;;;10.77;7.82;;;24.50;58.30;;;;;;4941841;29;20051;-94
2023/05/14 10:36:07;;;;;;;9.23;8.32;;;24.60;56.90;;;;;;4958015;29;20090;-94
2023/05/14 10:38:34;;;;;;;12.25;7.57;;;24.60;56.50;;;;;;4957899;29;20091;-95
2023/05/14 10:41:02;;;;;;;10.55;7.85;;;24.80;56.60;;;;;;4957876;29;20520;-94
2023/05/14 10:43:36;;;;;;;9.75;7.72;;;24.80;55.10;;;;;;4958624;29;20098;-93
2023/05/14 10:46:02;;;;;;;8.45;7.00;;;24.80;54.70;;;;;;4961255;29;20074;-96
2023/05/14 10:48:28;;;;;;;10.20;7.22;;;24.90;54.50;;;;;;4959418;29;20111;-96
2023/05/14 10:50:54;;;;;;;11.10;7.25;;;24.90;54.90;;;;;;4957403;29;20134;-94
2023/05/14 10:53:33;;;;;;;9.27;6.60;;;24.80;55.70;;;;;;4957544;29;20053;-94
2023/05/14 10:56:08;;;;;;;8.27;6.78;;;24.90;55.60;;;;;;4957556;29;20093;-95
2023/05/14 10:58:41;;;;;;;8.32;6.95;;;25.00;54.00;;;;;;4957738;29;20516;-95
2023/05/14 11:01:22;;;;;;;8.23;7.13;;;25.10;53.20;;;;;;4957549;29;20501;-95
2023/05/14 11:03:54;;;;;;;11.02;7.40;;;25.10;53.60;;;;;;4958168;29;20412;-96
2023/05/14 11:06:20;;;;;;;8.10;7.30;;;25.20;54.70;;;;;;4941512;29;20050;-96
2023/05/14 11:09:03;;;;;;;7.95;7.03;;;25.30;54.20;;;;;;4941643;29;20409;-95
2023/05/14 11:11:28;;;;;;;9.23;6.90;;;25.30;53.10;;;;;;4956562;28;20059;-96
2023/05/14 11:13:55;;;;;;;9.63;6.70;;;25.70;53.70;;;;;;4941647;29;20047;-95
2023/05/14 11:16:29;;;;;;;10.48;7.50;;;25.80;52.60;;;;;;4941517;29;20047;-95
2023/05/14 11:19:03;;;;;;;9.05;6.53;;;25.90;52.30;;;;;;4957277;29;20053;-95
2023/05/14 11:21:34;;;;;;;6.72;5.32;;;26.20;51.80;;;;;;4956703;28;20050;-94
2023/05/14 11:24:00;;;;;;;6.85;5.43;;;26.30;50.60;;;;;;4956086;29;20047;-95
2023/05/14 11:26:25;;;;;;;8.65;6.40;;;26.50;50.40;;;;;;4964283;28;20050;-94
2023/05/14 11:28:51;;;;;;;6.88;5.68;;;26.50;49.50;;;;;;4975934;28;20054;-94
2023/05/14 11:31:46;;;;;;;6.65;5.88;;;26.60;49.10;;;;;;4976082;28;20470;-94
2023/05/14 11:34:12;;;;;;;6.50;5.80;;;26.40;48.50;;;;;;4960093;28;20141;-94
2023/05/14 11:36:37;;;;;;;6.55;5.50;;;26.50;48.40;;;;;;4976126;28;20074;-92
2023/05/14 11:39:36;;;;;;;8.60;6.03;;;26.50;48.20;;;;;;4960297;28;20105;-92
2023/05/14 11:42:11;;;;;;;6.35;5.75;;;26.50;47.90;;;;;;4976111;28;20097;-93
2023/05/14 11:44:38;;;;;;;6.82;6.13;;;26.80;48.40;;;;;;4960561;28;20484;-92
2023/05/14 11:47:04;;;;;;;9.20;5.07;;;27.00;48.20;;;;;;4976487;28;20051;-92
2023/05/14 11:49:31;;;;;;;7.88;5.72;;;27.10;47.20;;;;;;4959656;28;20043;-89
2023/05/14 11:52:01;;;;;;;8.75;5.90;;;27.10;46.20;;;;;;4975769;28;20051;-93
2023/05/14 11:54:28;;;;;;;8.50;6.10;;;27.20;45.70;;;;;;4975655;28;20085;-93
2023/05/14 11:56:55;;;;;;;6.90;6.20;;;27.30;46.10;;;;;;4974547;28;20088;-96
2023/05/14 11:59:24;;;;;;;8.68;5.80;;;27.30;47.10;;;;;;4975047;28;20085;-92
2023/05/14 12:01:51;;;;;;;8.25;6.35;;;27.40;47.00;;;;;;4959497;28;20047;-93
2023/05/14 12:04:21;;;;;;;7.75;6.18;;;27.50;46.80;;;;;;4975739;28;20068;-94
2023/05/14 12:06:52;;;;;;;8.57;5.63;;;27.60;47.20;;;;;;4959864;28;20046;-94
2023/05/14 12:09:21;;;;;;;7.10;4.43;;;27.50;46.90;;;;;;4975892;28;20054;-93
2023/05/14 12:11:52;;;;;;;6.78;4.60;;;27.60;46.10;;;;;;4975703;28;20436;-93
2023/05/14 12:14:24;;;;;;;4.60;4.20;;;27.60;45.40;;;;;;4975892;28;20089;-93
2023/05/14 12:16:50;;;;;;;8.10;5.70;;;27.50;44.60;;;;;;4959201;28;20054;-92
2023/05/14 12:19:22;;;;;;;6.70;4.60;;;27.60;44.10;;;;;;4959342;28;20047;-92
2023/05/14 12:21:49;;;;;;;8.05;5.18;;;27.50;43.60;;;;;;4974866;28;20504;-91
2023/05/14 12:24:28;;;;;;;6.28;5.25;;;27.60;44.30;;;;;;4975420;28;20555;-93
2023/05/14 12:26:54;;;;;;;6.93;5.30;;;27.50;44.00;;;;;;4975284;28;20050;-94
2023/05/14 12:29:26;;;;;;;8.13;5.75;;;27.60;44.90;;;;;;4975192;28;20043;-92
2023/05/14 12:31:51;;;;;;;7.18;5.00;;;27.50;44.60;;;;;;4959573;28;20132;-94
2023/05/14 12:34:17;;;;;;;5.72;5.18;;;27.60;44.10;;;;;;4975166;28;20078;-95